Ogoki Post

CYKP · 加拿大

METAR CYKP · Ogoki Post

18 五月 17:00 LT
1h
罗盘
风向 的 风向 的 风向 到 风向 110°
风: 6 kt, 2 beaufort

添加一条跑道以查看侧风和逆风信息。

添置 跑道
0 ft 5.000 10.000 15.000 20.000
Cloud Cloud Cloud Cloud Cloud Cloud
BKN 8.600
Cloud Cloud Cloud Cloud Cloud Cloud Cloud Cloud
OVC 11.000
METAR CYKP 182100Z AUTO 11006KT 060V140 9SM BKN086 OVC110 16/14 A2966 RMK PRESFR SLP047 DENSITY ALT 1100FT

METAR Ogoki Post - CYKP/YKP

该字段位于加拿大中。 该机场位于纬度51,66667和经度-85,90000。 本场的ICAO机场代码为CYKP。 该机场的IATA代码为YKP。 机场在Winnipeg FIR中。

该航空气象观测是针对Ogoki Post在2024年5月18日 17:00, 当地时间进行的。

机场观察

风向为110°,速度为6 kt。 风向在060°和140°之间变化。

可见度为9 mi。

有碎云在8.600 ft的高度 和 乌云密布在11.000 ft的高度。 破损或更高的上限为8.600 ft。

温度和风寒是16 °C。 露点为14 °C,相对湿度为88%。 海平面上的气压为29,66 inHg (QNH)。

白天

今天,太阳从05:45升起,在21:34降落。 这适用于Ogoki Post,世界夏令时可能有所不同。 当地时间与世界标准时间之间的时差为-4 小时。 夏令时目前正在进行中。

公司介绍

我们没有关于这个机场的公司信息。

体会

到Vliegles.nl去找飞行课程,跳伞和其他飞行体验。 浏览页面,了解Ogoki Post附近所有可用的活动。 你也可以使用搜索功能来寻找你所在地附近的特定飞行课程、跳伞或其他飞行体验。

乌云

8.600 ft BKN 碎云
11.000 ft OVC 乌云密布

温度 & 天气

温度 16 °C
露点 14 °C
相对湿度 88%
Kp-index 0 (0-9)

评论

PRESFR气压迅速下降
SLP047海平面压力为29,67 inHg (29,67 inHg)
DENSITY ALT 1100FT

白天

日出
05:45
中午
13:40
日落
21:34 (3:30)

小工具

你想在你的网站上有一个关于Ogoki Post的当前航空天气(METAR)的小部件吗?

显示HTML代码
报告变更